createdAt,value
2023-03-29T00:01:35.413Z,5.67
2023-03-29T00:04:04.549Z,5.68
2023-03-29T00:06:33.072Z,5.70
2023-03-29T00:09:00.458Z,5.72
2023-03-29T00:11:27.392Z,5.73
2023-03-29T00:13:54.228Z,5.71
2023-03-29T00:16:20.855Z,5.76
2023-03-29T00:18:47.649Z,5.79
2023-03-29T00:21:14.170Z,5.81
2023-03-29T00:23:40.755Z,5.80
2023-03-29T00:26:08.334Z,5.79
2023-03-29T00:28:35.404Z,5.78
2023-03-29T00:31:08.195Z,5.80
2023-03-29T00:33:34.680Z,5.78
2023-03-29T00:36:01.898Z,5.80
2023-03-29T00:38:28.587Z,5.79
2023-03-29T00:40:54.991Z,5.76
2023-03-29T00:43:21.519Z,5.76
2023-03-29T00:45:48.116Z,5.74
2023-03-29T00:48:24.397Z,5.74
2023-03-29T00:50:56.202Z,5.74
2023-03-29T00:53:28.451Z,5.75
2023-03-29T00:56:07.417Z,5.77
2023-03-29T00:58:43.519Z,5.78
2023-03-29T01:01:17.557Z,5.78
2023-03-29T01:03:50.136Z,5.79
2023-03-29T01:06:19.480Z,5.81
2023-03-29T01:09:01.327Z,5.82
2023-03-29T01:11:32.427Z,5.83
2023-03-29T01:14:05.556Z,5.85
2023-03-29T01:16:35.132Z,5.87
2023-03-29T01:19:02.228Z,5.88
2023-03-29T01:21:39.725Z,5.93
2023-03-29T01:24:45.487Z,5.96
2023-03-29T01:27:31.786Z,5.95
2023-03-29T01:30:05.505Z,5.99
2023-03-29T01:32:38.876Z,5.98
2023-03-29T01:35:15.900Z,6.01
2023-03-29T01:38:05.482Z,6.03
2023-03-29T01:40:33.653Z,6.03
2023-03-29T01:43:34.856Z,6.05
2023-03-29T01:46:08.092Z,6.08
2023-03-29T01:48:49.936Z,6.12
2023-03-29T01:51:24.767Z,6.13
2023-03-29T01:54:03.697Z,6.15
2023-03-29T01:56:36.873Z,6.19
2023-03-29T01:59:08.274Z,6.20
2023-03-29T02:01:40.410Z,6.23
2023-03-29T02:04:13.141Z,6.24
2023-03-29T02:06:41.725Z,6.27
2023-03-29T02:09:09.068Z,6.28
2023-03-29T02:11:36.174Z,6.30
2023-03-29T02:14:02.743Z,6.29
2023-03-29T02:16:29.191Z,6.30
2023-03-29T02:18:57.659Z,6.30
2023-03-29T02:21:51.781Z,6.29
2023-03-29T02:24:20.649Z,6.29
2023-03-29T02:26:48.077Z,6.30
2023-03-29T02:29:15.120Z,6.30
2023-03-29T02:31:48.929Z,6.28
2023-03-29T02:34:28.429Z,6.30
2023-03-29T02:37:00.214Z,6.27
2023-03-29T02:39:28.965Z,6.31
2023-03-29T02:41:56.757Z,6.32
2023-03-29T02:44:27.780Z,6.30
2023-03-29T02:46:58.616Z,6.31
2023-03-29T02:49:25.333Z,6.33
2023-03-29T02:51:56.073Z,6.33
2023-03-29T02:54:25.934Z,6.32
2023-03-29T02:57:01.064Z,6.34
2023-03-29T02:59:29.941Z,6.36
2023-03-29T03:01:56.636Z,6.36
2023-03-29T03:04:23.137Z,6.37
2023-03-29T03:06:49.756Z,6.38
2023-03-29T03:09:16.705Z,6.39
2023-03-29T03:11:43.122Z,6.39
2023-03-29T03:14:09.768Z,6.36
2023-03-29T03:16:37.144Z,6.37
2023-03-29T03:19:03.835Z,6.35
2023-03-29T03:21:30.320Z,6.36
2023-03-29T03:23:56.945Z,6.37
2023-03-29T03:26:24.981Z,6.35
2023-03-29T03:28:51.390Z,6.35
2023-03-29T03:31:17.797Z,6.38
2023-03-29T03:33:44.734Z,6.36
2023-03-29T03:36:11.430Z,6.37
2023-03-29T03:38:38.516Z,6.34
2023-03-29T03:41:06.980Z,6.34
2023-03-29T03:43:34.119Z,6.35
2023-03-29T03:46:01.457Z,6.36
2023-03-29T03:48:27.955Z,6.35
2023-03-29T03:50:59.123Z,6.38
2023-03-29T03:53:27.271Z,6.39
2023-03-29T03:55:55.963Z,6.41
2023-03-29T03:58:23.361Z,6.41
2023-03-29T04:00:50.935Z,6.38
2023-03-29T04:03:18.454Z,6.39
2023-03-29T04:05:47.077Z,6.41
2023-03-29T04:08:14.890Z,6.39
2023-03-29T04:10:42.045Z,6.39
2023-03-29T04:13:08.513Z,6.40
2023-03-29T04:15:41.354Z,6.38
2023-03-29T04:18:07.875Z,6.39
2023-03-29T04:20:34.637Z,6.38
2023-03-29T04:23:01.533Z,6.39
2023-03-29T04:25:28.468Z,6.38
2023-03-29T04:27:54.958Z,6.41
2023-03-29T04:30:21.822Z,6.41
2023-03-29T04:32:48.740Z,6.41
2023-03-29T04:35:15.257Z,6.40
2023-03-29T04:37:41.856Z,6.40
2023-03-29T04:40:09.869Z,6.43
2023-03-29T04:42:37.434Z,6.42
2023-03-29T04:45:06.923Z,6.44
2023-03-29T04:47:36.254Z,6.45
2023-03-29T04:50:03.806Z,6.46
2023-03-29T04:52:33.182Z,6.44
2023-03-29T04:55:04.439Z,6.44
2023-03-29T04:57:31.004Z,6.47
2023-03-29T04:59:57.477Z,6.46
2023-03-29T05:02:24.121Z,6.48
2023-03-29T05:04:50.633Z,6.48
2023-03-29T05:07:18.184Z,6.49
2023-03-29T05:09:44.549Z,6.50
2023-03-29T05:12:11.100Z,6.48
2023-03-29T05:14:37.547Z,6.47
2023-03-29T05:17:05.056Z,6.47
2023-03-29T05:19:31.991Z,6.47
2023-03-29T05:21:59.085Z,6.48
2023-03-29T05:24:25.746Z,6.50
2023-03-29T05:26:52.375Z,6.52
2023-03-29T05:29:19.042Z,6.54
2023-03-29T05:31:45.825Z,6.54
2023-03-29T05:34:12.221Z,6.55
2023-03-29T05:36:39.164Z,6.55
2023-03-29T05:39:06.446Z,6.60
2023-03-29T05:41:33.643Z,6.60
2023-03-29T05:44:00.008Z,6.62
2023-03-29T05:46:26.968Z,6.61
2023-03-29T05:48:53.596Z,6.62
2023-03-29T05:51:24.108Z,6.63
2023-03-29T05:53:51.440Z,6.67
2023-03-29T05:56:18.998Z,6.68
2023-03-29T05:58:49.478Z,6.68
2023-03-29T06:01:18.134Z,6.67
2023-03-29T06:03:48.088Z,6.69
2023-03-29T06:06:16.405Z,6.71
2023-03-29T06:08:43.805Z,6.72
2023-03-29T06:11:13.222Z,6.74
2023-03-29T06:13:40.067Z,6.74
2023-03-29T06:16:10.765Z,6.75
2023-03-29T06:18:40.236Z,6.78
2023-03-29T06:21:09.164Z,6.79
2023-03-29T06:23:36.452Z,6.83
2023-03-29T06:26:05.612Z,6.87
2023-03-29T06:28:32.148Z,6.88
2023-03-29T06:31:02.923Z,6.89
2023-03-29T06:33:32.413Z,6.93
2023-03-29T06:35:58.997Z,6.94
2023-03-29T06:38:28.048Z,6.98
2023-03-29T06:41:05.974Z,7.02
2023-03-29T06:43:33.448Z,7.06
2023-03-29T06:46:00.655Z,7.09
2023-03-29T06:48:27.233Z,7.13
2023-03-29T06:50:54.565Z,7.17
2023-03-29T06:53:22.094Z,7.20
2023-03-29T06:55:50.699Z,7.24
2023-03-29T06:58:17.087Z,7.28
2023-03-29T07:00:43.465Z,7.32
2023-03-29T07:03:13.346Z,7.36
2023-03-29T07:05:42.045Z,7.40
2023-03-29T07:08:08.669Z,7.45
2023-03-29T07:10:41.232Z,7.50
2023-03-29T07:13:12.211Z,7.54
2023-03-29T07:15:43.254Z,7.62
2023-03-29T07:18:10.402Z,7.68
2023-03-29T07:20:38.751Z,7.73
2023-03-29T07:23:06.769Z,7.78
2023-03-29T07:25:33.905Z,7.83
2023-03-29T07:28:00.315Z,7.86
2023-03-29T07:30:31.973Z,7.88
2023-03-29T07:32:59.145Z,7.91
2023-03-29T07:35:26.815Z,7.94
2023-03-29T07:37:54.934Z,7.95
2023-03-29T07:40:23.636Z,7.97
2023-03-29T07:42:56.433Z,8.01
2023-03-29T07:45:26.446Z,8.04
2023-03-29T07:47:56.484Z,8.09
2023-03-29T07:50:23.120Z,8.12
2023-03-29T07:52:50.131Z,8.15
2023-03-29T07:55:17.032Z,8.19
2023-03-29T07:57:44.179Z,8.25
2023-03-29T08:00:16.154Z,8.28
2023-03-29T08:02:44.678Z,8.32
2023-03-29T08:05:13.637Z,8.39
2023-03-29T08:07:44.622Z,8.42
2023-03-29T08:10:13.774Z,8.47
2023-03-29T08:12:41.992Z,8.49
2023-03-29T08:15:09.428Z,8.51
2023-03-29T08:17:36.230Z,8.56
2023-03-29T08:20:04.173Z,8.60
2023-03-29T08:22:32.240Z,8.63
2023-03-29T08:24:58.987Z,8.64
2023-03-29T08:27:25.883Z,8.68
2023-03-29T08:29:52.277Z,8.72
2023-03-29T08:32:18.641Z,8.77
2023-03-29T08:34:45.193Z,8.81
2023-03-29T08:37:11.621Z,8.86
2023-03-29T08:39:38.531Z,8.93
2023-03-29T08:42:24.103Z,8.96
2023-03-29T08:45:06.258Z,9.02
2023-03-29T08:47:47.728Z,9.05
2023-03-29T08:50:15.092Z,9.09
2023-03-29T08:52:46.733Z,9.12
2023-03-29T08:55:37.959Z,9.13
2023-03-29T08:58:07.924Z,9.14
2023-03-29T09:00:42.889Z,9.19
2023-03-29T09:03:31.646Z,9.23
2023-03-29T09:06:04.754Z,9.23
2023-03-29T09:08:31.619Z,9.24
2023-03-29T09:11:16.462Z,9.28
2023-03-29T09:13:56.884Z,9.29
2023-03-29T09:16:33.402Z,9.32
2023-03-29T09:19:39.342Z,9.34
2023-03-29T09:22:14.091Z,9.37
2023-03-29T09:25:11.404Z,9.37
2023-03-29T09:27:58.131Z,9.41
2023-03-29T09:30:27.477Z,9.47
2023-03-29T09:33:17.085Z,9.50
2023-03-29T09:35:52.876Z,9.55
2023-03-29T09:38:22.104Z,9.63
2023-03-29T09:40:54.984Z,9.72
2023-03-29T09:43:31.952Z,9.82
2023-03-29T09:46:03.511Z,9.85
2023-03-29T09:48:34.526Z,9.92
2023-03-29T09:51:02.337Z,9.99
2023-03-29T09:53:28.970Z,10.03
2023-03-29T09:55:55.776Z,10.09
2023-03-29T09:58:31.667Z,10.16
2023-03-29T10:01:00.030Z,10.18
2023-03-29T10:03:31.801Z,10.16
2023-03-29T10:06:00.267Z,10.17
2023-03-29T10:08:36.524Z,10.22
2023-03-29T10:11:14.735Z,10.27
2023-03-29T10:13:50.593Z,10.32
2023-03-29T10:16:23.061Z,10.39
2023-03-29T10:18:50.363Z,10.47
2023-03-29T10:21:22.079Z,10.55
2023-03-29T10:23:49.838Z,10.65
2023-03-29T10:26:29.332Z,10.72
2023-03-29T10:28:57.390Z,10.75
2023-03-29T10:31:25.053Z,10.76
2023-03-29T10:33:54.653Z,10.81
2023-03-29T10:36:23.140Z,10.84
2023-03-29T10:38:52.081Z,10.87
2023-03-29T10:41:21.771Z,10.86
2023-03-29T10:43:51.090Z,10.83
2023-03-29T10:46:23.666Z,10.84
2023-03-29T10:48:59.002Z,10.86
2023-03-29T10:51:30.084Z,10.86
2023-03-29T10:54:01.425Z,10.92
2023-03-29T10:56:41.521Z,11.02
2023-03-29T10:59:24.194Z,11.06
2023-03-29T11:02:15.719Z,11.09
2023-03-29T11:05:09.061Z,11.09
2023-03-29T11:07:45.075Z,11.10
2023-03-29T11:10:47.650Z,11.08
2023-03-29T11:13:19.970Z,11.01
2023-03-29T11:16:08.424Z,10.90
2023-03-29T11:18:53.822Z,10.83
2023-03-29T11:21:47.026Z,10.77
2023-03-29T11:24:27.745Z,10.73
2023-03-29T11:27:15.980Z,10.68
2023-03-29T11:29:53.452Z,10.68
2023-03-29T11:32:38.140Z,10.69
2023-03-29T11:35:23.523Z,10.71
2023-03-29T11:37:49.854Z,10.75
2023-03-29T11:40:39.299Z,10.81
2023-03-29T11:43:20.385Z,10.84
2023-03-29T11:45:53.848Z,10.82
2023-03-29T11:48:24.849Z,10.82
2023-03-29T11:50:58.732Z,10.86
2023-03-29T11:53:48.989Z,10.95
2023-03-29T11:56:24.001Z,10.98
2023-03-29T11:58:56.587Z,11.02
2023-03-29T12:01:33.438Z,11.03
2023-03-29T12:04:07.761Z,11.07
2023-03-29T12:06:53.350Z,11.11
2023-03-29T12:09:28.841Z,11.12
2023-03-29T12:12:09.513Z,11.14
2023-03-29T12:14:49.217Z,11.14
2023-03-29T12:17:23.062Z,11.17
2023-03-29T12:20:04.474Z,11.17
2023-03-29T12:22:32.378Z,11.18
2023-03-29T12:25:00.174Z,11.18
2023-03-29T12:27:46.857Z,11.23
2023-03-29T12:30:46.521Z,11.25
2023-03-29T12:33:43.619Z,11.19
2023-03-29T12:36:31.475Z,11.17
2023-03-29T12:38:58.281Z,11.14
2023-03-29T12:41:25.051Z,11.10
2023-03-29T12:43:51.591Z,11.05
2023-03-29T12:46:26.743Z,11.02
2023-03-29T12:49:06.062Z,10.97
2023-03-29T12:51:34.579Z,10.95
2023-03-29T12:54:15.048Z,10.96
2023-03-29T12:56:53.998Z,10.92
2023-03-29T12:59:44.330Z,10.91
2023-03-29T13:02:22.729Z,10.92
2023-03-29T13:04:57.941Z,10.96
2023-03-29T13:07:26.338Z,10.97
2023-03-29T13:09:58.467Z,10.98
2023-03-29T13:12:30.792Z,11.01
2023-03-29T13:15:26.901Z,11.03
2023-03-29T13:18:03.813Z,11.06
2023-03-29T13:20:52.021Z,11.11
2023-03-29T13:24:00.743Z,11.21
2023-03-29T13:26:53.988Z,11.28
2023-03-29T13:29:37.353Z,11.29
2023-03-29T13:32:36.577Z,11.30
2023-03-29T13:35:38.604Z,11.33
2023-03-29T13:38:16.303Z,11.37
2023-03-29T13:40:47.637Z,11.40
2023-03-29T13:43:20.167Z,11.41
2023-03-29T13:45:58.762Z,11.43
2023-03-29T13:48:29.604Z,11.49
2023-03-29T13:51:00.895Z,11.51
2023-03-29T13:53:49.620Z,11.52
2023-03-29T13:56:23.078Z,11.57
2023-03-29T13:58:53.910Z,11.61
2023-03-29T14:01:39.053Z,11.64
2023-03-29T14:04:12.902Z,11.66
2023-03-29T14:06:42.805Z,11.71
2023-03-29T14:09:12.788Z,11.77
2023-03-29T14:11:45.030Z,11.83
2023-03-29T14:14:11.596Z,11.88
2023-03-29T14:16:40.088Z,11.90
2023-03-29T14:19:15.312Z,11.94
2023-03-29T14:21:42.570Z,11.94
2023-03-29T14:24:20.702Z,11.96
2023-03-29T14:26:47.923Z,11.96
2023-03-29T14:29:15.076Z,11.99
2023-03-29T14:31:42.489Z,12.02
2023-03-29T14:34:18.767Z,12.02
2023-03-29T14:36:46.874Z,12.08
2023-03-29T14:39:20.984Z,12.12
2023-03-29T14:41:55.397Z,12.15
2023-03-29T14:44:26.114Z,12.20
2023-03-29T14:46:53.712Z,12.25
2023-03-29T14:49:22.920Z,12.31
2023-03-29T14:51:50.265Z,12.36
2023-03-29T14:54:20.903Z,12.46
2023-03-29T14:56:48.731Z,12.52
2023-03-29T14:59:49.674Z,12.58
2023-03-29T15:02:33.462Z,12.64
2023-03-29T15:05:05.794Z,12.68
2023-03-29T15:07:34.563Z,12.69
2023-03-29T15:10:03.120Z,12.68
2023-03-29T15:12:30.880Z,12.74
2023-03-29T15:14:58.198Z,12.79
2023-03-29T15:17:43.026Z,12.81
2023-03-29T15:20:21.508Z,12.83
2023-03-29T15:23:16.959Z,12.84
2023-03-29T15:25:50.426Z,12.85
2023-03-29T15:28:34.855Z,12.84
2023-03-29T15:33:34.828Z,12.89
2023-03-29T15:36:03.420Z,12.89
2023-03-29T15:38:42.622Z,12.88
2023-03-29T15:41:10.768Z,12.89
2023-03-29T15:43:37.447Z,12.87
2023-03-29T15:46:04.322Z,12.88
2023-03-29T15:48:33.664Z,12.85
2023-03-29T15:51:04.560Z,12.83
2023-03-29T15:53:32.708Z,12.84
2023-03-29T15:56:02.478Z,12.85
2023-03-29T15:58:31.818Z,12.83
2023-03-29T16:01:00.708Z,12.83
2023-03-29T16:03:27.356Z,12.83
2023-03-29T16:05:56.836Z,12.83
2023-03-29T16:08:25.076Z,12.85
2023-03-29T16:10:51.719Z,12.87
2023-03-29T16:13:18.197Z,12.87
2023-03-29T16:15:45.768Z,12.86
2023-03-29T16:18:12.156Z,12.86
2023-03-29T16:20:38.904Z,12.86
2023-03-29T16:23:09.728Z,12.85
2023-03-29T16:25:38.347Z,12.84
2023-03-29T16:28:05.621Z,12.84
2023-03-29T16:30:32.626Z,12.84
2023-03-29T16:32:59.196Z,12.83
2023-03-29T16:35:28.745Z,12.82
2023-03-29T16:37:55.379Z,12.81
2023-03-29T16:40:21.850Z,12.79
2023-03-29T16:42:48.386Z,12.78
2023-03-29T16:45:15.535Z,12.75
2023-03-29T16:47:44.357Z,12.73
2023-03-29T16:50:19.754Z,12.69
2023-03-29T16:52:47.890Z,12.66
2023-03-29T16:55:15.698Z,12.63
2023-03-29T16:57:42.676Z,12.61
2023-03-29T17:00:11.238Z,12.61
2023-03-29T17:02:37.797Z,12.61
2023-03-29T17:05:04.469Z,12.59
2023-03-29T17:07:30.956Z,12.58
2023-03-29T17:09:57.423Z,12.57
2023-03-29T17:12:24.060Z,12.55
2023-03-29T17:14:51.304Z,12.54
2023-03-29T17:17:17.724Z,12.55
2023-03-29T17:19:44.209Z,12.52
2023-03-29T17:22:10.697Z,12.51
2023-03-29T17:24:37.072Z,12.50
2023-03-29T17:27:03.566Z,12.49
2023-03-29T17:29:30.106Z,12.47
2023-03-29T17:31:56.551Z,12.45
2023-03-29T17:34:23.174Z,12.45
2023-03-29T17:36:53.244Z,12.45
2023-03-29T17:39:19.699Z,12.44
2023-03-29T17:41:47.240Z,12.42
2023-03-29T17:44:13.837Z,12.42
2023-03-29T17:46:40.316Z,12.40
2023-03-29T17:49:07.248Z,12.39
2023-03-29T17:51:33.628Z,12.37
2023-03-29T17:54:00.175Z,12.35
2023-03-29T17:56:26.634Z,12.34
2023-03-29T17:58:53.475Z,12.32
2023-03-29T18:01:20.336Z,12.30
2023-03-29T18:03:50.464Z,12.28
2023-03-29T18:06:20.171Z,12.27
2023-03-29T18:08:47.305Z,12.23
2023-03-29T18:11:17.208Z,12.20
2023-03-29T18:13:44.753Z,12.19
2023-03-29T18:16:11.442Z,12.17
2023-03-29T18:18:38.613Z,12.15
2023-03-29T18:21:06.935Z,12.12
2023-03-29T18:23:33.814Z,12.08
2023-03-29T18:26:02.798Z,12.05
2023-03-29T18:28:30.574Z,12.03
2023-03-29T18:30:57.212Z,11.99
2023-03-29T18:33:24.440Z,11.97
2023-03-29T18:35:51.856Z,11.92
2023-03-29T18:38:22.415Z,11.90
2023-03-29T18:40:50.510Z,11.89
2023-03-29T18:43:17.017Z,11.88
2023-03-29T18:45:44.489Z,11.87
2023-03-29T18:48:11.074Z,11.86
2023-03-29T18:50:37.621Z,11.84
2023-03-29T18:53:04.445Z,11.82
2023-03-29T18:55:31.097Z,11.80
2023-03-29T18:57:57.465Z,11.82
2023-03-29T19:00:23.938Z,11.82
2023-03-29T19:02:50.601Z,11.81
2023-03-29T19:05:17.043Z,11.79
2023-03-29T19:07:43.512Z,11.76
2023-03-29T19:10:10.223Z,11.76
2023-03-29T19:12:36.757Z,11.74
2023-03-29T19:15:03.526Z,11.73
2023-03-29T19:17:30.102Z,11.71
2023-03-29T19:19:56.760Z,11.69
2023-03-29T19:22:23.356Z,11.67
2023-03-29T19:24:49.820Z,11.67
2023-03-29T19:27:16.585Z,11.65
2023-03-29T19:29:42.989Z,11.62
2023-03-29T19:32:09.425Z,11.61
2023-03-29T19:34:36.189Z,11.63
2023-03-29T19:37:02.645Z,11.64
2023-03-29T19:39:29.804Z,11.66
2023-03-29T19:41:56.588Z,11.64
2023-03-29T19:44:26.034Z,11.63
2023-03-29T19:46:52.532Z,11.62
2023-03-29T19:49:19.175Z,11.63
2023-03-29T19:51:45.620Z,11.61
2023-03-29T19:54:13.228Z,11.63
2023-03-29T19:56:40.633Z,11.65
2023-03-29T19:59:08.900Z,11.67
2023-03-29T20:01:37.493Z,11.65
2023-03-29T20:04:04.670Z,11.66
2023-03-29T20:06:31.073Z,11.68
2023-03-29T20:08:58.654Z,11.69
2023-03-29T20:11:25.167Z,11.70
2023-03-29T20:13:51.582Z,11.70
2023-03-29T20:16:19.153Z,11.70
2023-03-29T20:18:46.500Z,11.72
2023-03-29T20:21:16.564Z,11.73
2023-03-29T20:23:43.369Z,11.73
2023-03-29T20:26:10.507Z,11.73
2023-03-29T20:28:37.649Z,11.73
2023-03-29T20:31:06.826Z,11.72
2023-03-29T20:33:33.552Z,11.71
2023-03-29T20:36:02.993Z,11.73
2023-03-29T20:38:29.461Z,11.73
2023-03-29T20:40:55.863Z,11.74
2023-03-29T20:43:22.637Z,11.77
2023-03-29T20:46:14.799Z,11.76
2023-03-29T20:48:54.062Z,11.77
2023-03-29T20:51:22.246Z,11.80
2023-03-29T20:53:48.796Z,11.82
2023-03-29T20:56:15.241Z,11.85
2023-03-29T20:58:43.752Z,11.88
2023-03-29T21:01:14.292Z,11.91
2023-03-29T21:03:42.166Z,11.97
2023-03-29T21:06:09.533Z,12.00
2023-03-29T21:08:35.968Z,12.03
2023-03-29T21:11:03.224Z,12.03
2023-03-29T21:13:30.029Z,12.04
2023-03-29T21:15:56.943Z,12.02
2023-03-29T21:18:23.423Z,12.02
2023-03-29T21:20:49.779Z,12.01
2023-03-29T21:23:16.315Z,11.99
2023-03-29T21:25:43.964Z,11.99
2023-03-29T21:28:12.116Z,11.99
2023-03-29T21:30:38.759Z,12.00
2023-03-29T21:33:05.606Z,12.00
2023-03-29T21:35:35.612Z,12.02
2023-03-29T21:38:02.305Z,12.02
2023-03-29T21:40:28.725Z,12.03
2023-03-29T21:42:55.317Z,12.05
2023-03-29T21:45:21.782Z,12.06
2023-03-29T21:47:48.273Z,12.04
2023-03-29T21:50:16.109Z,12.04
2023-03-29T21:52:42.547Z,12.02
2023-03-29T21:55:13.067Z,12.03
2023-03-29T21:57:48.901Z,12.02
2023-03-29T22:00:17.396Z,12.02
2023-03-29T22:02:45.853Z,11.99
2023-03-29T22:05:12.425Z,11.97
2023-03-29T22:07:39.772Z,11.96
2023-03-29T22:10:12.324Z,11.93
2023-03-29T22:12:39.600Z,11.91
2023-03-29T22:15:08.558Z,11.88
2023-03-29T22:17:36.024Z,11.89
2023-03-29T22:20:13.799Z,11.88
2023-03-29T22:22:47.035Z,11.88
2023-03-29T22:25:13.597Z,11.88
2023-03-29T22:27:40.297Z,11.84
2023-03-29T22:30:08.071Z,11.85
2023-03-29T22:32:34.557Z,11.83
2023-03-29T22:35:01.098Z,11.78
2023-03-29T22:37:27.530Z,11.76
2023-03-29T22:40:01.895Z,11.74
2023-03-29T22:42:28.361Z,11.71
2023-03-29T22:44:54.761Z,11.69
2023-03-29T22:47:22.201Z,11.70
2023-03-29T22:49:48.666Z,11.69
2023-03-29T22:52:16.190Z,11.67
2023-03-29T22:54:43.687Z,11.65
2023-03-29T22:57:10.125Z,11.65
2023-03-29T22:59:36.536Z,11.63
2023-03-29T23:02:03.108Z,11.62
2023-03-29T23:04:29.781Z,11.61
2023-03-29T23:07:23.280Z,11.60
2023-03-29T23:09:50.552Z,11.59
2023-03-29T23:12:17.063Z,11.57
2023-03-29T23:14:59.069Z,11.58
2023-03-29T23:17:25.525Z,11.55
2023-03-29T23:19:52.942Z,11.57
2023-03-29T23:22:34.215Z,11.59
2023-03-29T23:25:11.968Z,11.62
2023-03-29T23:27:38.374Z,11.65
2023-03-29T23:30:07.503Z,11.65
2023-03-29T23:32:33.966Z,11.67
2023-03-29T23:35:19.545Z,11.67
2023-03-29T23:38:19.744Z,11.68
2023-03-29T23:40:58.826Z,11.71
2023-03-29T23:43:27.234Z,11.71
2023-03-29T23:45:57.639Z,11.74
2023-03-29T23:48:30.248Z,11.75
2023-03-29T23:50:59.657Z,11.78
2023-03-29T23:53:34.151Z,11.77
2023-03-29T23:56:03.980Z,11.78
2023-03-29T23:58:35.940Z,11.79
